Pine River, Canada
Current Conditions -  °F | °C
As of 4:00 AM on Wednesday 22 Oct 2014 (Local Time) from CYDN Reporting Station
Clear Clear  
Wind Chill: 41°   Ceiling: Unl
Heat Index: 41°   Visibility: 9mi
Dew Point: 37°   Wind: 2mph
Humidity: 87%   Direction: NA
Pressure: 29.58"   Gusts: NA
Location:  51.78°N, 100.53°W
Report Text: CYDN 220900Z AUTO VRB02KT 9SM CLR 05/03 A2958 RMK SLP023
Loading
Personal Weather Stations






























Interactive Weather Map
Tropical Storm Tracking
New forecast layout! Learn more

10-Day Weather Forecast

Advertisements
Track Severe Weather on mobile